Time;durP1;ratioP1;P1;durP2;ratioP2;P2;SDS_P1;SDS_P2;PMS_P1;PMS_P2;Temp;Humidity;BMP_temperature;BMP_pressure;BME280_temperature;BME280_humidity;BME280_pressure;Samples;Min_cycle;Max_cycle;Signal;HPM_P1;HPM_P2
2022/06/11 14:02:32;;;;;;;3.88;3.65;;;40.90;23.60;;;33.86;22.03;96126.66;5130467;27;20143;-55
2022/06/11 14:05:11;;;;;;;3.78;3.58;;;40.70;22.20;;;33.79;21.72;96131.44;5109233;28;20434;-55
2022/06/11 14:07:58;;;;;;;3.58;3.38;;;41.20;21.30;;;34.29;23.18;96118.13;5120170;27;20114;-56
2022/06/11 14:10:32;;;;;;;6.18;3.30;;;41.80;21.10;;;34.35;21.81;96120.44;5108870;28;20520;-54
2022/06/11 14:13:03;;;;;;;4.45;4.10;;;42.60;20.60;;;34.52;21.29;96119.50;5092011;28;20042;-55
2022/06/11 14:15:41;;;;;;;4.63;4.33;;;43.10;19.90;;;34.68;19.85;96124.53;5098714;28;20133;-54
2022/06/11 14:18:39;;;;;;;4.30;4.00;;;43.60;19.40;;;34.48;21.55;96124.28;5097076;28;20020;-50
2022/06/11 14:21:40;;;;;;;4.57;4.28;;;43.90;18.90;;;34.88;19.78;96127.50;5117232;27;20070;-52
2022/06/11 14:24:45;;;;;;;4.28;3.97;;;44.30;18.70;;;35.23;20.63;96129.94;5105978;28;20054;-53
2022/06/11 14:27:50;;;;;;;5.25;4.85;;;44.60;18.40;;;35.57;19.92;96133.91;5104427;28;20040;-53
2022/06/11 14:30:29;;;;;;;5.50;4.22;;;45.10;18.10;;;35.96;19.64;96133.41;5117768;28;20020;-54
2022/06/11 14:33:13;;;;;;;4.15;3.95;;;45.40;17.80;;;36.35;19.10;96132.03;5098390;28;20031;-53
2022/06/11 14:35:48;;;;;;;5.63;5.22;;;45.70;17.60;;;36.41;19.86;96124.81;5106746;28;20092;-52
2022/06/11 14:38:32;;;;;;;4.68;4.38;;;46.00;17.50;;;36.43;19.73;96127.97;5108686;28;20036;-55
2022/06/11 14:41:08;;;;;;;5.13;4.82;;;46.20;17.30;;;36.03;20.06;96121.44;5092077;28;20077;-54
2022/06/11 14:43:52;;;;;;;5.40;4.93;;;46.20;17.10;;;36.18;20.23;96120.03;5096187;28;20085;-50
2022/06/11 14:46:39;;;;;;;4.90;4.60;;;46.20;17.00;;;36.24;19.79;96117.56;5107348;28;20122;-54
2022/06/11 14:49:40;;;;;;;4.78;4.57;;;46.30;16.90;;;35.95;20.07;96117.97;5107951;28;20316;-55
2022/06/11 14:52:15;;;;;;;4.60;4.38;;;46.40;17.00;;;36.22;19.63;96114.44;5109171;28;20020;-50
2022/06/11 14:55:13;;;;;;;4.80;4.50;;;46.50;16.90;;;36.27;18.37;96111.19;5108999;28;20033;-52
2022/06/11 14:58:24;;;;;;;5.38;5.00;;;46.60;16.60;;;36.28;19.11;96123.84;5125058;28;20490;-54
2022/06/11 15:01:11;;;;;;;6.00;5.45;;;47.00;16.50;;;36.49;18.74;96117.97;4997315;28;20061;-53
2022/06/11 15:04:17;;;;;;;5.70;5.40;;;47.40;16.50;;;36.60;18.33;96112.25;4990625;28;20042;-53
2022/06/11 15:06:49;;;;;;;6.95;6.55;;;48.10;16.10;;;36.63;18.51;96105.84;4979993;28;20562;-55
2022/06/11 15:10:05;;;;;;;5.30;4.82;;;48.60;15.80;;;36.55;19.06;96112.75;5006477;28;20030;-50
2022/06/11 15:13:02;;;;;;;7.03;6.63;;;49.10;15.30;;;36.51;20.02;96106.47;5000905;28;20390;-52
2022/06/11 15:16:15;;;;;;;5.95;5.55;;;49.60;15.30;;;36.87;17.63;96109.41;5033188;22;20140;-48
2022/06/11 15:18:49;;;;;;;6.53;6.22;;;50.10;15.00;;;37.00;18.05;96099.28;5037787;28;20108;-50
2022/06/11 15:21:40;;;;;;;6.93;6.53;;;50.60;14.70;;;37.11;18.34;96104.63;5052173;28;20045;-47
2022/06/11 15:24:54;;;;;;;6.78;6.25;;;51.20;14.50;;;37.45;17.14;96101.59;5053635;28;20029;-49
2022/06/11 15:27:33;;;;;;;7.15;6.75;;;52.10;14.30;;;37.45;17.66;96109.09;4989466;28;20060;-47
2022/06/11 15:30:23;;;;;;;7.88;7.35;;;52.90;13.80;;;37.34;17.71;96114.88;5018104;28;20423;-50
2022/06/11 15:32:52;;;;;;;8.73;8.18;;;53.90;13.60;;;37.44;17.03;96113.88;5035111;28;20064;-53
2022/06/11 15:35:43;;;;;;;10.10;9.60;;;54.60;13.00;;;37.44;17.78;96110.31;5017252;28;20369;-50
2022/06/11 15:38:20;;;;;;;12.02;11.43;;;55.50;12.80;;;37.77;16.70;96100.13;5017015;28;20052;-49
2022/06/11 15:41:00;;;;;;;12.38;11.68;;;56.10;12.30;;;38.47;17.35;96101.72;5017342;28;20096;-51
2022/06/11 15:43:40;;;;;;;12.00;11.38;;;56.60;12.30;;;38.20;16.97;96101.94;5034621;28;20044;-50
2022/06/11 15:46:41;;;;;;;15.07;14.18;;;56.90;12.10;;;38.07;16.25;96090.72;5016700;28;20037;-50
2022/06/11 15:49:47;;;;;;;12.55;11.85;;;56.90;11.90;;;38.19;16.87;96103.94;5018448;28;20121;-45
2022/06/11 15:52:49;;;;;;;13.95;13.25;;;56.90;12.00;;;38.19;16.54;96098.38;4972894;28;20034;-46
2022/06/11 15:55:37;;;;;;;12.38;11.68;;;56.90;11.80;;;38.14;16.77;96093.34;5033165;28;20029;-47
2022/06/11 15:58:08;;;;;;;11.23;10.63;;;56.80;11.80;;;38.39;16.93;96098.34;5034392;28;20044;-50
2022/06/11 16:00:46;;;;;;;11.40;10.70;;;56.70;11.80;;;38.43;17.01;96098.25;5034190;28;20033;-48
2022/06/11 16:06:26;;;;;;;10.48;9.90;;;56.70;11.70;;;38.28;16.92;96097.78;5034332;28;20140;-48
2022/06/11 16:09:17;;;;;;;11.30;10.70;;;56.80;11.70;;;38.08;16.39;96089.53;5016866;28;20026;-49
2022/06/11 16:11:55;;;;;;;12.65;11.95;;;56.80;11.40;;;37.88;16.19;96085.97;5016563;28;20391;-51
2022/06/11 16:14:40;;;;;;;9.65;9.02;;;56.80;11.20;;;37.56;17.21;96081.91;5016785;28;20459;-53
2022/06/11 16:17:39;;;;;;;10.30;9.80;;;56.70;11.20;;;37.52;16.66;96074.88;5017278;28;20068;-50
2022/06/11 16:20:23;;;;;;;10.50;9.82;;;56.50;11.10;;;37.60;15.92;96084.63;5033725;28;20116;-50
2022/06/11 16:23:24;;;;;;;9.02;8.60;;;56.40;11.10;;;37.61;15.75;96075.88;5033831;28;20037;-50
2022/06/11 16:26:00;;;;;;;10.55;9.98;;;56.40;10.90;;;37.95;16.92;96080.28;5033081;28;20132;-49
2022/06/11 16:28:32;;;;;;;10.32;9.70;;;56.70;11.20;;;37.50;17.22;96069.75;5015921;28;20026;-47
2022/06/11 16:31:05;;;;;;;9.82;9.25;;;56.80;11.00;;;37.49;16.43;96079.31;4999838;28;20033;-51
2022/06/11 16:33:52;;;;;;;10.20;9.70;;;56.70;10.90;;;37.31;17.14;96076.09;4999851;28;20029;-47
2022/06/11 16:36:48;;;;;;;9.27;8.77;;;56.90;11.00;;;37.81;17.24;96086.94;5015901;28;20025;-48
2022/06/11 16:39:39;;;;;;;9.43;8.90;;;56.90;11.00;;;37.93;15.33;96075.16;5013590;28;20447;-51
2022/06/11 16:44:58;;;;;;;11.13;10.43;;;56.90;10.90;;;37.85;16.37;96075.72;5005404;28;20401;-48
2022/06/11 16:47:44;;;;;;;9.43;8.93;;;56.90;10.90;;;37.83;17.28;96080.94;5032286;28;20426;-51
2022/06/11 16:58:46;;;;;;;8.77;8.38;;;56.60;11.00;;;37.47;17.53;96071.38;5018668;28;20036;-46
2022/06/11 17:01:27;;;;;;;7.75;7.35;;;56.50;10.80;;;37.13;17.46;96085.53;5032822;28;20060;-51
2022/06/11 17:04:24;;;;;;;7.85;7.35;;;56.40;11.00;;;37.07;18.31;96080.91;5032845;28;20040;-49
2022/06/11 17:07:06;;;;;;;6.57;6.22;;;56.20;11.00;;;36.72;19.67;96080.34;5015644;28;20495;-48
2022/06/11 17:09:42;;;;;;;4.85;4.55;;;56.00;11.00;;;35.63;19.51;96079.63;5032966;28;20164;-47
2022/06/11 17:12:20;;;;;;;3.47;3.28;;;55.60;11.00;;;35.14;20.88;96073.50;5032773;28;20037;-48
2022/06/11 17:15:38;;;;;;;2.65;2.45;;;53.30;11.50;;;33.84;21.74;96071.00;5032570;28;20163;-51
2022/06/11 17:18:32;;;;;;;2.50;1.88;;;49.50;12.70;;;32.94;22.68;96067.06;5018452;28;20381;-47
2022/06/11 17:21:14;;;;;;;2.10;2.00;;;45.60;14.20;;;31.88;23.58;96074.94;5032728;28;20029;-50
2022/06/11 17:23:54;;;;;;;;;;;43.00;15.30;;;30.91;25.17;96073.81;5033248;28;20030;-49
2022/06/11 17:26:26;;;;;;;1.83;1.55;;;40.80;15.90;;;29.84;27.24;96072.97;5015175;28;20399;-47
2022/06/11 17:28:54;;;;;;;2.10;1.90;;;38.90;17.30;;;29.09;27.18;96074.84;4999090;28;20029;-46
2022/06/11 17:31:28;;;;;;;2.75;1.48;;;37.40;18.20;;;28.75;28.12;96072.78;5032607;28;20472;-47
2022/06/11 17:34:03;;;;;;;2.67;1.67;;;36.10;19.30;;;28.26;29.05;96073.59;5032558;28;20447;-44
2022/06/11 17:36:35;;;;;;;3.20;1.70;;;35.00;20.00;;;27.83;29.46;96077.59;5032033;28;20083;-50
2022/06/11 17:39:11;;;;;;;1.95;1.73;;;34.00;21.00;;;27.30;30.17;96077.34;5014962;28;20033;-47
2022/06/11 17:41:37;;;;;;;1.75;1.55;;;33.10;21.60;;;27.05;31.50;96083.06;5032329;28;20556;-47
2022/06/11 17:44:31;;;;;;;2.13;1.42;;;32.40;22.30;;;26.59;32.63;96082.84;5014835;28;20109;-45
2022/06/11 17:47:03;;;;;;;4.20;1.85;;;31.80;23.40;;;26.29;33.04;96074.28;5032363;28;20029;-45
2022/06/11 17:49:35;;;;;;;1.48;1.38;;;31.10;23.90;;;26.03;32.77;96075.63;5032304;28;20022;-45
2022/06/11 17:52:27;;;;;;;3.38;1.77;;;30.60;24.30;;;25.73;33.81;96072.53;5032314;28;20033;-47
2022/06/11 17:54:55;;;;;;;1.90;1.40;;;30.20;25.20;;;25.41;35.48;96079.84;5032375;28;20038;-48
2022/06/11 17:57:22;;;;;;;1.52;1.42;;;29.70;25.50;;;25.23;35.51;96081.28;5032314;28;20067;-47
2022/06/11 17:59:48;;;;;;;1.88;1.50;;;29.40;26.10;;;24.98;37.39;96092.25;5032136;28;20041;-46
2022/06/11 18:03:00;;;;;;;1.65;1.38;;;29.10;26.80;;;24.80;36.55;96093.66;5032384;28;20108;-47
2022/06/11 18:05:30;;;;;;;4.30;3.45;;;28.80;27.20;;;24.50;37.88;96090.41;5032021;28;20044;-46
2022/06/11 18:07:59;;;;;;;3.47;1.92;;;28.40;27.60;;;24.38;37.88;96091.97;5019161;28;20033;-46
2022/06/11 18:10:40;;;;;;;1.98;1.60;;;28.20;28.00;;;24.14;40.32;96084.59;5014397;28;20025;-46
2022/06/11 18:13:08;;;;;;;4.28;3.20;;;27.90;28.70;;;23.93;40.45;96078.44;5016262;28;20037;-47
2022/06/11 18:16:15;;;;;;;2.85;1.70;;;27.70;29.00;;;23.70;39.55;96086.22;5014433;28;20429;-47
2022/06/11 18:18:52;;;;;;;3.05;1.40;;;27.50;29.40;;;23.50;41.11;96080.50;5014272;28;20041;-49
2022/06/11 18:27:06;;;;;;;3.47;1.50;;;26.90;30.50;;;23.04;42.30;96093.22;5032181;28;20044;-46
2022/06/11 18:29:33;;;;;;;1.98;1.60;;;26.70;30.80;;;22.90;43.32;96089.13;5031955;28;20041;-48
2022/06/11 18:31:58;;;;;;;1.23;1.20;;;26.50;31.50;;;22.66;43.46;96093.31;5014297;28;20079;-48
2022/06/11 18:34:36;;;;;;;2.80;1.50;;;26.30;31.90;;;22.47;45.56;96096.47;5031895;28;20029;-47
2022/06/11 18:37:05;;;;;;;3.83;1.60;;;26.10;33.30;;;22.22;45.28;96090.06;5014242;28;20025;-45
2022/06/11 18:39:31;;;;;;;2.10;1.50;;;25.90;33.50;;;22.08;46.31;96103.00;5030557;28;20030;-48
2022/06/11 18:42:07;;;;;;;1.85;1.55;;;25.70;33.80;;;21.87;47.12;96095.59;5013956;28;20787;-46
2022/06/11 18:44:51;;;;;;;2.67;1.40;;;25.50;34.50;;;21.62;48.86;96093.72;5014205;28;20030;-47
2022/06/11 18:47:16;;;;;;;3.20;1.35;;;25.30;35.00;;;21.42;48.84;96087.09;5032252;28;20030;-45
2022/06/11 18:49:46;;;;;;;2.30;1.70;;;25.10;35.50;;;21.19;51.27;96094.59;5035499;28;20032;-48
2022/06/11 18:52:12;;;;;;;1.60;1.50;;;24.80;36.50;;;21.01;53.06;96094.56;5017854;28;20503;-47
2022/06/11 18:54:55;;;;;;;3.63;1.55;;;24.70;37.40;;;20.84;53.29;96097.31;5035364;28;20040;-46
2022/06/11 18:57:21;;;;;;;2.38;1.40;;;24.50;38.20;;;20.67;53.92;96098.06;5017892;28;20033;-46
2022/06/11 18:59:47;;;;;;;1.92;1.52;;;24.20;38.50;;;20.50;54.13;96098.81;5035290;28;20108;-50
2022/06/11 19:02:15;;;;;;;4.40;1.60;;;24.00;39.20;;;20.34;55.03;96095.75;4998328;28;20104;-49
2022/06/11 19:04:44;;;;;;;1.77;1.67;;;23.80;39.80;;;20.21;55.36;96088.56;5014188;28;20499;-45
2022/06/11 19:07:17;;;;;;;2.00;1.33;;;23.70;40.50;;;20.11;56.00;96096.94;5034332;28;20029;-48
2022/06/11 19:09:53;;;;;;;2.88;1.70;;;23.50;41.20;;;19.98;57.28;96093.22;5035312;28;20030;-49
2022/06/11 19:12:21;;;;;;;3.28;1.85;;;23.40;42.00;;;19.86;57.60;96096.50;5000192;28;20380;-45
2022/06/11 19:14:50;;;;;;;5.63;2.15;;;23.20;42.20;;;19.76;57.57;96094.09;5024998;28;20034;-45
2022/06/11 19:17:16;;;;;;;3.42;1.95;;;23.10;42.50;;;19.66;57.25;96096.28;5034451;28;20409;-48
2022/06/11 19:19:47;;;;;;;2.33;1.60;;;23.00;42.80;;;19.55;57.48;96101.09;5034954;28;20041;-46
2022/06/11 19:22:16;;;;;;;3.08;1.77;;;22.90;43.20;;;19.43;58.29;96090.88;5034934;28;20181;-46
2022/06/11 19:24:44;;;;;;;2.22;1.77;;;22.80;43.60;;;19.33;58.41;96093.81;5034033;28;20032;-47
2022/06/11 19:27:10;;;;;;;3.85;1.90;;;22.60;43.90;;;19.22;58.63;96098.66;5028924;28;20029;-46
2022/06/11 19:29:36;;;;;;;1.67;1.55;;;22.50;44.10;;;19.06;59.62;96103.63;5023308;28;20026;-45
2022/06/11 19:32:05;;;;;;;2.25;1.77;;;22.40;44.50;;;18.94;60.87;96098.78;5031472;28;20060;-44
2022/06/11 19:34:34;;;;;;;1.92;1.70;;;22.20;45.10;;;18.83;60.67;96108.19;5033515;28;20036;-45
2022/06/11 19:37:02;;;;;;;2.55;1.65;;;22.10;45.30;;;18.71;60.64;96111.41;5033332;28;20491;-46
2022/06/11 19:39:38;;;;;;;3.67;1.60;;;22.00;45.60;;;18.58;61.51;96114.13;5026392;28;20033;-45
2022/06/11 19:42:11;;;;;;;3.78;1.65;;;21.90;46.20;;;18.43;61.69;96117.97;5005761;28;20026;-45
2022/06/11 19:45:03;;;;;;;3.90;2.30;;;21.70;46.30;;;18.26;62.03;96119.34;5017654;28;20428;-46
2022/06/11 19:47:32;;;;;;;6.63;2.25;;;21.60;46.70;;;18.15;62.17;96122.56;5034477;28;20116;-46
2022/06/11 19:50:06;;;;;;;2.70;1.88;;;21.50;46.70;;;18.00;63.59;96124.44;5016680;28;20116;-49
2022/06/11 19:52:34;;;;;;;6.05;2.17;;;21.40;47.40;;;17.89;63.14;96120.31;5034165;28;20072;-47
2022/06/11 19:55:05;;;;;;;2.55;2.08;;;21.20;47.40;;;17.78;62.72;96127.00;5000196;28;20034;-45
2022/06/11 19:57:32;;;;;;;2.20;1.95;;;21.10;47.80;;;17.68;62.39;96132.56;5034167;28;20029;-46
2022/06/11 19:59:59;;;;;;;3.70;1.95;;;21.00;47.90;;;17.60;62.49;96125.94;5030142;28;20057;-46
2022/06/11 20:02:31;;;;;;;2.88;1.80;;;20.90;48.60;;;17.51;62.17;96131.19;5033963;28;20026;-47
2022/06/11 20:04:56;;;;;;;2.67;2.00;;;20.80;48.20;;;17.46;62.03;96133.19;5033614;28;20036;-48
2022/06/11 20:07:26;;;;;;;3.50;1.92;;;20.70;48.20;;;17.42;61.51;96135.66;5016079;28;20017;-45
2022/06/11 20:09:55;;;;;;;4.07;2.10;;;20.70;48.40;;;17.39;62.23;96130.84;5033975;28;20036;-45
2022/06/11 20:12:21;;;;;;;2.65;1.70;;;20.60;48.60;;;17.32;62.94;96139.31;5032164;28;20036;-43
2022/06/11 20:14:48;;;;;;;3.25;1.63;;;20.60;48.60;;;17.26;63.69;96132.41;5003655;28;20026;-53
2022/06/11 20:17:14;;;;;;;3.58;2.00;;;20.50;48.80;;;17.17;64.16;96128.78;5032658;28;20034;-44
2022/06/11 20:19:45;;;;;;;2.65;1.92;;;20.50;49.10;;;17.07;63.71;96135.13;5033594;28;20033;-47
2022/06/11 20:22:18;;;;;;;3.13;1.65;;;20.40;49.40;;;16.98;64.47;96133.38;5016204;28;20021;-46
2022/06/11 20:24:47;;;;;;;2.88;2.20;;;20.30;49.50;;;16.87;65.01;96125.47;5016629;28;20038;-45
2022/06/11 20:27:15;;;;;;;2.45;1.92;;;20.20;49.60;;;16.76;64.59;96125.91;5033621;28;20032;-48
2022/06/11 20:29:42;;;;;;;4.20;2.20;;;20.20;49.70;;;16.63;64.41;96132.78;5033573;28;20064;-44
2022/06/11 20:32:11;;;;;;;3.38;2.30;;;20.10;50.00;;;16.62;65.03;96123.13;5033468;28;20029;-47
2022/06/11 20:34:40;;;;;;;3.13;2.03;;;20.00;50.20;;;16.57;66.11;96131.25;5033441;28;20033;-46
2022/06/11 20:37:07;;;;;;;4.32;1.83;;;19.90;50.60;;;16.53;65.29;96130.22;5020943;28;20083;-44
2022/06/11 20:39:36;;;;;;;1.92;1.73;;;19.90;50.70;;;16.51;65.30;96127.00;5016291;28;20484;-46
2022/06/11 20:42:05;;;;;;;2.22;1.80;;;19.80;50.80;;;16.45;65.19;96128.16;5015555;28;20392;-45
2022/06/11 20:44:31;;;;;;;2.35;1.73;;;19.80;50.90;;;16.39;65.28;96133.63;5033249;28;20037;-49
2022/06/11 20:47:02;;;;;;;5.20;1.67;;;19.70;51.00;;;16.37;64.70;96135.78;5033340;28;20025;-44
2022/06/11 20:49:55;;;;;;;2.67;2.00;;;19.70;51.20;;;16.37;65.21;96133.09;5032274;28;20175;-45
2022/06/11 20:52:26;;;;;;;2.70;2.10;;;19.70;51.40;;;16.35;66.05;96129.88;5033145;28;20507;-44
2022/06/11 20:54:57;;;;;;;2.35;1.90;;;19.60;51.40;;;16.29;66.01;96133.72;5032196;28;20037;-52
2022/06/11 20:57:23;;;;;;;2.88;1.63;;;19.60;51.50;;;16.24;66.24;96133.81;5032185;28;20037;-44
2022/06/11 20:59:49;;;;;;;2.20;2.00;;;19.60;51.60;;;16.22;66.84;96127.91;5033150;28;20067;-46
2022/06/11 21:02:24;;;;;;;1.83;1.60;;;19.50;51.80;;;16.19;67.24;96131.16;5012718;28;20543;-44
2022/06/11 21:04:51;;;;;;;5.18;1.77;;;19.50;52.20;;;16.14;66.61;96118.59;5020005;28;20503;-44
2022/06/11 21:10:08;;;;;;;2.45;1.70;;;19.40;52.30;;;16.13;66.34;96121.56;5032774;28;20067;-45
2022/06/11 21:12:40;;;;;;;3.28;1.70;;;19.40;52.20;;;16.09;66.64;96120.53;5032775;28;20396;-44
2022/06/11 21:15:15;;;;;;;3.85;2.15;;;19.40;52.40;;;16.06;66.85;96111.16;5049489;22;20230;-49
2022/06/11 21:17:46;;;;;;;2.42;2.20;;;19.30;52.40;;;16.03;67.16;96116.31;5044460;28;20037;-51
2022/06/11 21:20:21;;;;;;;4.30;2.17;;;19.40;52.60;;;15.95;67.89;96121.22;5030983;28;20025;-53
2022/06/11 21:22:57;;;;;;;2.88;1.88;;;19.30;52.60;;;15.87;67.50;96118.38;5031484;28;20507;-48
2022/06/11 21:25:31;;;;;;;3.65;2.00;;;19.20;52.80;;;15.79;67.77;96116.28;5026112;28;20034;-48
2022/06/11 21:28:04;;;;;;;2.40;1.90;;;19.20;52.70;;;15.69;68.57;96120.69;5012059;28;20030;-47
2022/06/11 21:30:36;;;;;;;4.05;2.17;;;19.10;52.90;;;15.62;69.19;96114.81;5012644;28;20037;-49
2022/06/11 21:33:02;;;;;;;3.65;2.22;;;19.10;53.20;;;15.56;69.86;96120.53;5011450;28;20041;-47
2022/06/11 21:35:32;;;;;;;3.65;1.98;;;18.90;53.10;;;15.42;70.79;96115.81;5011684;28;20029;-51
2022/06/11 21:37:59;;;;;;;3.13;1.98;;;18.90;53.70;;;15.37;70.83;96117.72;5011737;28;20120;-50
2022/06/11 21:40:26;;;;;;;5.03;1.77;;;18.80;53.80;;;15.28;71.18;96117.53;4995330;28;20049;-48
2022/06/11 21:42:53;;;;;;;2.00;1.67;;;18.80;54.20;;;15.28;70.73;96121.00;5011568;28;20121;-50
2022/06/11 21:45:22;;;;;;;2.83;1.67;;;18.70;54.40;;;15.26;69.76;96123.19;4995211;28;20477;-48
2022/06/11 21:47:52;;;;;;;3.45;1.77;;;18.70;54.40;;;15.24;70.13;96130.72;5011555;28;20135;-47
2022/06/11 21:50:24;;;;;;;3.38;2.17;;;18.60;54.40;;;15.18;71.66;96131.84;5011434;28;20097;-49
2022/06/11 21:52:50;;;;;;;3.17;2.13;;;18.60;54.70;;;15.06;71.87;96120.66;5012604;28;20044;-48
2022/06/11 21:55:20;;;;;;;3.28;2.03;;;18.50;54.70;;;14.94;71.73;96115.63;4995250;28;20104;-47
2022/06/11 21:57:55;;;;;;;2.10;1.90;;;18.50;55.00;;;14.94;71.72;96128.25;5011380;28;20022;-48
2022/06/11 22:00:53;;;;;;;2.60;1.98;;;18.40;55.00;;;14.85;72.55;96135.28;5024012;28;20472;-48
2022/06/11 22:03:25;;;;;;;3.35;1.98;;;18.30;55.30;;;14.77;72.94;96136.69;5014039;28;20095;-47
2022/06/11 22:05:50;;;;;;;4.68;2.35;;;18.20;55.30;;;14.66;73.59;96130.56;5030812;28;20033;-49
2022/06/11 22:08:19;;;;;;;2.55;1.98;;;18.10;55.40;;;14.60;74.00;96131.66;5032297;28;20031;-49
2022/06/11 22:10:48;;;;;;;3.85;2.20;;;18.10;55.90;;;14.61;73.88;96135.16;5030992;28;20045;-47
2022/06/11 22:13:22;;;;;;;5.45;2.60;;;18.00;56.00;;;14.48;74.81;96126.63;5032230;28;20030;-48
2022/06/11 22:15:48;;;;;;;3.15;1.95;;;17.90;56.50;;;14.46;74.53;96133.34;5031742;28;20045;-47
2022/06/11 22:18:14;;;;;;;5.80;2.17;;;17.90;56.40;;;14.42;74.42;96130.41;5032268;28;20555;-49
2022/06/11 22:20:42;;;;;;;3.53;2.25;;;17.90;56.60;;;14.43;74.92;96137.34;5032026;28;20033;-52
2022/06/11 22:23:18;;;;;;;3.60;2.22;;;17.80;56.80;;;14.33;75.69;96140.88;5033993;28;20029;-50
2022/06/11 22:25:44;;;;;;;2.20;2.00;;;17.80;57.20;;;14.30;75.36;96152.16;5035999;28;20025;-52
2022/06/11 22:28:17;;;;;;;2.00;1.80;;;17.70;57.10;;;14.27;75.16;96141.19;5034805;28;20026;-51
2022/06/11 22:30:44;;;;;;;6.13;2.15;;;17.70;57.30;;;14.26;75.10;96142.28;5018502;28;20106;-53
2022/06/11 22:33:10;;;;;;;4.88;2.42;;;17.60;57.30;;;14.23;75.64;96151.66;5034643;28;20163;-51
2022/06/11 22:35:41;;;;;;;2.45;2.00;;;17.60;57.60;;;14.22;75.93;96149.22;5036054;28;20531;-50
2022/06/11 22:38:11;;;;;;;2.85;1.85;;;17.60;57.70;;;14.24;75.64;96147.09;5035852;28;20130;-55
2022/06/11 22:40:39;;;;;;;2.97;2.20;;;17.60;57.80;;;14.19;75.91;96150.56;5034679;28;20036;-51
2022/06/11 22:43:11;;;;;;;4.20;2.40;;;17.50;57.80;;;14.16;75.77;96145.75;5018308;28;20033;-55
2022/06/11 22:45:38;;;;;;;2.97;2.05;;;17.50;58.20;;;14.08;75.95;96138.31;5035522;28;20038;-53
2022/06/11 22:48:05;;;;;;;4.97;2.20;;;17.50;58.00;;;14.11;76.21;96151.94;5034565;28;20029;-53
2022/06/11 22:50:31;;;;;;;3.53;2.03;;;17.50;58.30;;;14.06;76.56;96132.41;5034564;28;20507;-51
2022/06/11 22:53:04;;;;;;;5.50;2.15;;;17.50;58.50;;;14.08;76.53;96144.47;5034242;28;20025;-52
2022/06/11 22:55:35;;;;;;;2.92;2.22;;;17.40;58.80;;;14.09;76.18;96132.66;5034373;28;20049;-51
2022/06/11 22:58:03;;;;;;;2.47;2.03;;;17.40;58.70;;;14.00;76.59;96117.44;5035685;28;20507;-51
2022/06/11 23:00:39;;;;;;;3.17;2.28;;;17.40;58.90;;;14.01;76.57;96130.56;5017623;28;20022;-52
2022/06/11 23:03:12;;;;;;;2.35;2.15;;;17.40;59.00;;;13.99;76.74;96129.22;5005326;28;20044;-54
2022/06/11 23:05:38;;;;;;;3.10;2.10;;;17.40;59.10;;;13.96;76.57;96127.09;5033802;28;20029;-51
2022/06/11 23:08:05;;;;;;;3.55;2.13;;;17.30;59.00;;;13.95;76.95;96128.97;5014511;28;20515;-53
2022/06/11 23:10:52;;;;;;;3.25;1.90;;;17.30;59.20;;;13.97;76.83;96136.72;5014246;28;20033;-49
2022/06/11 23:13:23;;;;;;;3.13;2.15;;;17.30;59.30;;;13.94;76.93;96137.25;5015670;28;20021;-52
2022/06/11 23:15:55;;;;;;;4.63;2.30;;;17.30;59.50;;;13.91;77.08;96127.88;5013689;28;20042;-51
2022/06/11 23:18:22;;;;;;;3.33;2.40;;;17.30;59.60;;;13.91;77.25;96127.09;5014145;28;20034;-55
2022/06/11 23:20:53;;;;;;;3.28;2.45;;;17.20;59.50;;;13.83;77.59;96126.59;5014086;28;20124;-51
2022/06/11 23:23:21;;;;;;;3.95;2.38;;;17.20;59.70;;;13.80;77.95;96131.69;4997955;28;20040;-50
2022/06/11 23:25:52;;;;;;;4.97;2.13;;;17.20;59.80;;;13.80;77.69;96134.38;5015264;28;20022;-52
2022/06/11 23:28:22;;;;;;;4.57;2.35;;;17.20;60.10;;;13.75;77.81;96129.00;5015233;28;20026;-50
2022/06/11 23:31:00;;;;;;;3.17;2.22;;;17.10;60.10;;;13.70;78.25;96129.03;4997749;28;20109;-50
2022/06/11 23:33:42;;;;;;;5.18;2.45;;;17.10;60.30;;;13.72;78.00;96134.91;4997248;28;20088;-53
2022/06/11 23:36:09;;;;;;;3.47;2.47;;;17.10;60.40;;;13.64;78.33;96137.06;4997657;28;20118;-52
2022/06/11 23:38:35;;;;;;;3.90;2.47;;;17.10;60.40;;;13.62;78.79;96136.53;5013757;28;20034;-50
2022/06/11 23:41:08;;;;;;;3.05;2.20;;;17.00;60.60;;;13.57;78.78;96127.69;5013875;28;20022;-55
2022/06/11 23:43:38;;;;;;;3.25;2.17;;;17.00;60.90;;;13.58;78.72;96129.31;5013686;28;20092;-50
2022/06/11 23:46:04;;;;;;;4.82;2.30;;;17.00;60.80;;;13.53;78.82;96130.09;4997214;28;20109;-50
